Time;durP1;ratioP1;P1;durP2;ratioP2;P2;SDS_P1;SDS_P2;PMS_P1;PMS_P2;Temp;Humidity;BMP_temperature;BMP_pressure;BME280_temperature;BME280_humidity;BME280_pressure;Samples;Min_cycle;Max_cycle;Signal;HPM_P1;HPM_P2
2023/03/27 00:01:10;;;;;;;11.00;2.15;;;;;;;3.33;57.74;101169.69;7397703;19;20006;-62
2023/03/27 00:03:36;;;;;;;13.07;2.50;;;;;;;3.35;57.64;101173.13;7395105;19;19999;-63
2023/03/27 00:06:05;;;;;;;16.77;2.47;;;;;;;3.30;57.65;101169.81;7394474;19;20027;-63
2023/03/27 00:08:31;;;;;;;16.23;2.28;;;;;;;3.29;57.96;101176.00;7397770;19;20032;-63
2023/03/27 00:10:57;;;;;;;9.10;2.10;;;;;;;3.28;57.94;101183.03;7396466;19;20023;-63
2023/03/27 00:13:23;;;;;;;13.13;2.60;;;;;;;3.25;58.02;101177.91;7397590;19;19991;-62
2023/03/27 00:15:52;;;;;;;15.00;2.45;;;;;;;3.29;57.90;101181.25;7394026;19;20010;-62
2023/03/27 00:18:18;;;;;;;12.27;2.35;;;;;;;3.24;58.15;101185.88;7394194;19;20006;-62
2023/03/27 00:20:44;;;;;;;10.63;2.00;;;;;;;3.24;58.10;101188.50;7397438;19;20475;-63
2023/03/27 00:23:11;;;;;;;11.80;2.58;;;;;;;3.28;58.03;101187.44;7396869;19;20002;-63
2023/03/27 00:25:39;;;;;;;11.18;2.00;;;;;;;3.35;57.70;101186.25;7395377;19;19998;-63
2023/03/27 00:28:07;;;;;;;12.38;2.05;;;;;;;3.38;57.26;101192.22;7394362;19;19999;-62
2023/03/27 00:30:34;;;;;;;10.35;1.90;;;;;;;3.35;57.39;101200.22;7396326;19;20079;-62
2023/03/27 00:33:00;;;;;;;11.23;2.30;;;;;;;3.27;58.07;101204.13;7383074;19;20482;-62
2023/03/27 00:35:28;;;;;;;13.50;2.45;;;;;;;3.31;57.74;101205.69;7394662;19;20467;-63
2023/03/27 00:37:54;;;;;;;12.27;2.38;;;;;;;3.41;57.71;101204.34;7390314;19;20002;-64
2023/03/27 00:40:20;;;;;;;12.23;1.83;;;;;;;3.43;57.69;101201.66;7393710;19;19999;-65
2023/03/27 00:42:48;;;;;;;12.52;2.60;;;;;;;3.49;57.62;101202.22;7394557;19;20018;-64
2023/03/27 00:45:20;;;;;;;9.68;2.13;;;;;;;3.50;57.60;101206.56;7393484;19;20005;-63
2023/03/27 00:47:59;;;;;;;12.70;2.22;;;;;;;3.40;58.35;101205.25;7391789;19;20351;-65
2023/03/27 00:50:35;;;;;;;11.30;2.15;;;;;;;3.38;58.79;101199.25;7395686;19;19994;-63
2023/03/27 00:53:25;;;;;;;11.75;2.05;;;;;;;3.31;59.30;101201.28;7395449;19;19995;-63
2023/03/27 00:55:55;;;;;;;10.55;2.17;;;;;;;3.35;59.46;101210.72;7395126;19;19991;-63
2023/03/27 00:58:27;;;;;;;15.15;2.28;;;;;;;3.33;60.10;101214.34;7393548;19;20025;-62
2023/03/27 01:00:54;;;;;;;12.80;2.40;;;;;;;3.32;59.85;101215.25;7395474;19;20058;-62
2023/03/27 01:03:30;;;;;;;11.43;1.90;;;;;;;3.31;59.84;101217.03;7394919;19;20037;-62
2023/03/27 01:05:59;;;;;;;11.38;1.95;;;;;;;3.28;59.81;101221.56;7392391;19;20002;-62
2023/03/27 01:08:27;;;;;;;11.05;1.67;;;;;;;3.24;60.18;101220.00;7394760;19;20032;-62
2023/03/27 01:11:18;;;;;;;12.05;1.95;;;;;;;3.18;60.42;101222.88;7394009;19;20002;-62
2023/03/27 01:13:44;;;;;;;9.00;1.75;;;;;;;3.20;60.34;101228.94;7395326;19;19999;-63
2023/03/27 01:16:34;;;;;;;8.93;2.15;;;;;;;3.18;60.65;101228.97;7392338;19;19994;-61
2023/03/27 01:19:29;;;;;;;7.50;1.90;;;;;;;3.16;61.05;101230.00;7393047;19;20454;-62
2023/03/27 01:22:04;;;;;;;11.43;2.00;;;;;;;3.21;60.88;101228.00;7390278;19;20780;-63
2023/03/27 01:24:32;;;;;;;10.77;2.30;;;;;;;3.26;60.46;101229.50;7395478;19;20002;-62
2023/03/27 01:27:09;;;;;;;14.65;1.90;;;;;;;3.36;60.35;101230.81;7393199;19;20066;-62
2023/03/27 01:29:47;;;;;;;8.43;1.70;;;;;;;3.31;60.33;101231.94;7396200;19;20446;-63
2023/03/27 01:32:57;;;;;;;14.32;2.20;;;;;;;3.29;59.95;101232.00;7384525;19;20323;-63
2023/03/27 01:35:45;;;;;;;9.70;1.95;;;;;;;3.25;59.85;101235.69;7393036;19;19995;-62
2023/03/27 01:38:29;;;;;;;10.95;1.63;;;;;;;3.23;59.55;101232.28;7391597;19;20463;-62
2023/03/27 01:41:08;;;;;;;19.40;2.17;;;;;;;3.24;59.45;101241.84;7395309;19;20506;-63
2023/03/27 01:43:40;;;;;;;15.80;2.05;;;;;;;3.21;59.42;101238.50;7393911;19;19998;-63
2023/03/27 01:46:27;;;;;;;7.97;1.55;;;;;;;3.26;59.11;101233.91;7392057;19;20006;-63
2023/03/27 01:49:03;;;;;;;11.32;1.60;;;;;;;3.22;59.30;101240.22;7391591;19;20006;-63
2023/03/27 01:51:35;;;;;;;10.25;2.00;;;;;;;3.19;59.09;101246.47;7393285;19;20005;-62
2023/03/27 01:54:11;;;;;;;6.70;1.63;;;;;;;3.16;59.19;101240.50;7393500;19;20085;-63
2023/03/27 01:56:41;;;;;;;8.10;1.67;;;;;;;3.14;59.27;101245.78;7394139;19;20006;-63
2023/03/27 01:59:12;;;;;;;9.15;1.48;;;;;;;3.17;59.00;101250.91;7393678;19;20006;-63
2023/03/27 02:01:43;;;;;;;10.50;1.90;;;;;;;3.29;58.53;101253.00;7393343;19;20010;-64
2023/03/27 02:04:14;;;;;;;11.57;1.90;;;;;;;3.28;58.96;101255.72;7394408;19;20009;-62
2023/03/27 02:06:45;;;;;;;13.15;2.20;;;;;;;3.25;59.27;101259.31;7393536;19;19998;-63
2023/03/27 02:09:19;;;;;;;13.18;2.60;;;;;;;3.26;59.47;101262.78;7393074;19;20069;-62
2023/03/27 02:11:57;;;;;;;12.20;2.28;;;;;;;3.23;59.74;101261.16;7390008;19;19998;-61
2023/03/27 02:14:29;;;;;;;11.52;1.80;;;;;;;3.19;60.08;101267.47;7393837;19;20050;-62
2023/03/27 02:16:59;;;;;;;12.35;2.70;;;;;;;3.16;60.54;101267.59;7393789;19;20003;-62
2023/03/27 02:20:15;;;;;;;10.63;2.80;;;;;;;3.12;60.91;101266.88;7393254;19;20011;-62
2023/03/27 02:22:47;;;;;;;13.30;2.10;;;;;;;3.04;60.84;101274.22;7392155;19;20511;-62
2023/03/27 02:25:43;;;;;;;8.38;1.90;;;;;;;3.01;61.03;101276.97;7393224;19;20006;-62
2023/03/27 02:28:21;;;;;;;11.65;2.50;;;;;;;2.97;60.77;101278.00;7390238;19;20002;-62
2023/03/27 02:30:56;;;;;;;9.07;2.53;;;;;;;2.88;61.34;101278.38;7392099;19;20010;-61
2023/03/27 02:33:43;;;;;;;12.13;2.95;;;;;;;2.82;61.54;101287.38;7390568;19;20318;-62
2023/03/27 02:36:40;;;;;;;11.90;3.60;;;;;;;2.82;61.76;101282.13;7391809;19;19999;-62
2023/03/27 02:39:15;;;;;;;13.82;4.28;;;;;;;2.84;61.58;101290.78;7391794;19;20086;-62
2023/03/27 02:41:55;;;;;;;13.45;3.55;;;;;;;2.80;61.76;101294.44;7389233;19;20490;-62
2023/03/27 02:44:23;;;;;;;13.80;2.80;;;;;;;2.79;61.65;101299.75;7390538;19;20106;-63
2023/03/27 02:47:18;;;;;;;10.95;2.35;;;;;;;2.79;61.74;101300.63;7390780;19;20006;-62
2023/03/27 02:49:50;;;;;;;11.63;2.30;;;;;;;2.69;62.21;101307.13;7392252;19;20014;-62
2023/03/27 02:52:28;;;;;;;9.38;1.75;;;;;;;2.74;62.49;101304.34;7388916;19;20003;-62
2023/03/27 02:55:13;;;;;;;13.38;1.90;;;;;;;2.74;62.51;101309.59;7391725;19;20002;-62
2023/03/27 02:57:38;;;;;;;8.73;1.88;;;;;;;2.75;62.70;101316.53;7389980;19;20546;-63
2023/03/27 03:00:27;;;;;;;11.38;1.95;;;;;;;2.68;62.72;101318.56;7396907;19;20003;-62
2023/03/27 03:03:16;;;;;;;14.05;2.63;;;;;;;2.64;63.57;101324.84;7390986;19;20007;-62
2023/03/27 03:05:42;;;;;;;11.50;1.83;;;;;;;2.64;63.40;101325.69;7391093;19;20006;-61
2023/03/27 03:08:09;;;;;;;10.30;1.92;;;;;;;2.63;63.35;101329.25;7389350;19;20045;-63
2023/03/27 03:10:44;;;;;;;14.55;2.42;;;;;;;2.60;63.76;101331.97;7391248;19;20007;-62
2023/03/27 03:13:10;;;;;;;11.05;2.20;;;;;;;2.55;64.04;101330.47;7390404;19;19998;-62
2023/03/27 03:15:36;;;;;;;10.30;1.80;;;;;;;2.55;63.96;101341.81;7390198;19;20015;-63
2023/03/27 03:18:02;;;;;;;10.20;1.90;;;;;;;2.62;64.09;101337.19;7385485;19;19999;-62
2023/03/27 03:20:28;;;;;;;11.32;2.50;;;;;;;2.59;63.95;101339.91;7391915;19;20010;-63
2023/03/27 03:22:56;;;;;;;12.75;2.70;;;;;;;2.57;64.46;101341.72;7386459;19;20074;-62
2023/03/27 03:25:22;;;;;;;14.13;3.05;;;;;;;2.67;64.14;101345.72;7389251;19;19999;-62
2023/03/27 03:27:48;;;;;;;9.13;2.30;;;;;;;2.63;64.17;101342.34;7388801;19;20070;-62
2023/03/27 03:30:13;;;;;;;10.50;2.28;;;;;;;2.68;64.13;101341.31;7388980;19;20016;-62
2023/03/27 03:32:39;;;;;;;12.15;2.55;;;;;;;2.58;64.40;101344.31;7388432;19;19999;-61
2023/03/27 03:35:05;;;;;;;11.50;2.83;;;;;;;2.53;64.82;101348.88;7390908;19;19999;-62
2023/03/27 03:37:37;;;;;;;15.50;3.00;;;;;;;2.58;64.51;101352.19;7389125;19;20070;-62
2023/03/27 03:40:10;;;;;;;15.60;3.53;;;;;;;2.62;64.10;101352.91;7390968;19;20352;-63
2023/03/27 03:42:42;;;;;;;12.90;3.20;;;;;;;2.59;64.30;101359.13;7391031;19;20002;-62
2023/03/27 03:45:08;;;;;;;14.60;3.85;;;;;;;2.62;64.65;101369.50;7389686;19;20013;-64
2023/03/27 03:47:34;;;;;;;11.82;3.72;;;;;;;2.77;64.33;101369.78;7389084;19;20551;-62
2023/03/27 03:49:59;;;;;;;11.40;3.45;;;;;;;2.75;64.12;101375.13;7387888;19;20050;-63
2023/03/27 03:52:26;;;;;;;15.23;3.45;;;;;;;2.64;64.55;101380.78;7390071;19;20021;-63
2023/03/27 03:54:51;;;;;;;12.50;3.28;;;;;;;2.62;64.64;101382.63;7389237;19;20010;-62
2023/03/27 03:57:17;;;;;;;13.48;3.88;;;;;;;2.60;64.34;101389.69;7389856;19;20002;-63
2023/03/27 03:59:42;;;;;;;17.92;3.95;;;;;;;2.59;64.56;101390.59;7389590;19;19991;-63
2023/03/27 04:02:11;;;;;;;11.57;2.67;;;;;;;2.61;64.19;101390.53;7389064;19;20011;-63
2023/03/27 04:04:37;;;;;;;10.77;2.67;;;;;;;2.49;64.82;101385.75;7388785;19;20354;-61
2023/03/27 04:07:05;;;;;;;9.90;2.90;;;;;;;2.58;64.33;101388.06;7388853;19;20003;-62
2023/03/27 04:09:31;;;;;;;11.13;2.85;;;;;;;2.40;64.98;101394.84;7390617;19;20054;-63
2023/03/27 04:11:57;;;;;;;8.88;1.92;;;;;;;2.41;64.41;101393.91;7387161;19;20018;-63
2023/03/27 04:14:22;;;;;;;9.20;2.08;;;;;;;2.51;64.11;101400.53;7390143;19;19998;-63
2023/03/27 04:16:48;;;;;;;10.82;2.30;;;;;;;2.50;63.91;101409.31;7388180;19;19999;-63
2023/03/27 04:19:13;;;;;;;9.05;2.08;;;;;;;2.53;63.67;101429.31;7390523;19;19995;-65
2023/03/27 04:21:41;;;;;;;9.40;1.85;;;;;;;2.57;63.76;101450.13;7388340;19;20003;-64
2023/03/27 04:24:07;;;;;;;7.95;1.88;;;;;;;2.48;66.20;101441.75;7389522;19;20030;-64
2023/03/27 04:26:34;;;;;;;7.82;1.70;;;;;;;2.29;67.14;101418.84;7387715;19;20002;-63
2023/03/27 04:28:59;;;;;;;10.05;1.88;;;;;;;2.20;67.67;101429.66;7387788;19;20017;-63
2023/03/27 04:31:25;;;;;;;6.80;1.70;;;;;;;2.10;68.31;101428.28;7387982;19;20003;-64
2023/03/27 04:33:51;;;;;;;8.85;1.83;;;;;;;2.03;68.93;101438.13;7387975;19;19994;-62
2023/03/27 04:36:17;;;;;;;7.45;1.80;;;;;;;1.99;69.41;101433.03;7387894;19;20041;-65
2023/03/27 04:38:43;;;;;;;5.63;1.60;;;;;;;2.04;69.54;101431.97;7387366;19;20460;-64
2023/03/27 04:41:08;;;;;;;6.50;1.60;;;;;;;2.07;69.51;101444.09;7393519;19;20002;-65
2023/03/27 04:43:40;;;;;;;6.63;1.60;;;;;;;1.99;69.62;101436.53;7395618;19;19991;-63
2023/03/27 04:46:06;;;;;;;8.98;1.60;;;;;;;1.92;69.72;101441.09;7395245;19;20003;-66
2023/03/27 04:48:33;;;;;;;6.78;1.70;;;;;;;1.95;69.66;101442.78;7393866;19;20010;-64
2023/03/27 04:50:59;;;;;;;8.40;1.70;;;;;;;1.99;69.22;101440.91;7395470;19;20010;-64
2023/03/27 04:53:28;;;;;;;9.68;2.85;;;;;;;1.87;69.21;101448.28;7394604;19;20016;-62
2023/03/27 04:55:56;;;;;;;7.65;1.70;;;;;;;1.84;69.36;101442.28;7395746;19;20029;-63
2023/03/27 04:58:24;;;;;;;9.82;1.98;;;;;;;1.88;69.31;101444.75;7394504;19;20006;-63
2023/03/27 05:00:54;;;;;;;12.07;2.40;;;;;;;1.94;69.37;101453.31;7396436;19;20026;-63
2023/03/27 05:03:21;;;;;;;10.23;2.63;;;;;;;1.88;69.24;101450.00;7393797;19;20026;-63
2023/03/27 05:05:48;;;;;;;12.00;2.60;;;;;;;1.90;69.06;101444.72;7395421;19;20019;-63
2023/03/27 05:08:14;;;;;;;9.80;2.53;;;;;;;2.03;69.00;101450.38;7392943;19;20007;-62
2023/03/27 05:10:40;;;;;;;12.32;2.63;;;;;;;2.06;68.45;101450.25;7394935;19;19998;-62
2023/03/27 05:13:06;;;;;;;8.10;2.33;;;;;;;2.09;67.58;101455.41;7394462;19;20009;-62
2023/03/27 05:15:32;;;;;;;9.07;2.45;;;;;;;2.17;66.88;101455.97;7394478;19;19998;-63
2023/03/27 05:17:57;;;;;;;10.57;2.40;;;;;;;2.10;66.48;101464.97;7393293;19;19999;-62
2023/03/27 05:20:24;;;;;;;15.38;2.95;;;;;;;2.17;65.69;101476.09;7395055;19;20022;-63
2023/03/27 05:22:54;;;;;;;9.82;2.47;;;;;;;2.16;65.68;101477.88;7393993;19;19999;-62
2023/03/27 05:25:21;;;;;;;10.30;2.72;;;;;;;2.11;66.41;101479.78;7394084;19;20025;-62
2023/03/27 05:27:48;;;;;;;10.00;3.00;;;;;;;2.17;66.66;101476.09;7392982;19;19994;-63
2023/03/27 05:30:16;;;;;;;16.20;2.78;;;;;;;2.20;66.47;101483.84;7393165;19;19998;-63
2023/03/27 05:32:50;;;;;;;6.60;2.03;;;;;;;2.20;66.85;101486.44;7392179;19;20392;-62
2023/03/27 05:35:18;;;;;;;8.80;2.53;;;;;;;2.13;66.76;101484.06;7393945;19;20013;-63
2023/03/27 05:37:48;;;;;;;9.32;2.05;;;;;;;2.15;67.32;101477.00;7392691;19;20081;-61
2023/03/27 05:40:16;;;;;;;11.60;2.38;;;;;;;2.04;67.48;101481.75;7393818;19;20006;-62
2023/03/27 05:42:44;;;;;;;7.50;2.10;;;;;;;2.06;67.72;101481.72;7394080;19;20003;-61
2023/03/27 05:45:11;;;;;;;10.68;2.22;;;;;;;2.10;67.96;101484.16;7394249;19;19999;-62
2023/03/27 05:47:47;;;;;;;12.98;2.53;;;;;;;2.08;68.12;101486.00;7390102;19;20435;-63
2023/03/27 05:50:14;;;;;;;11.57;3.13;;;;;;;2.10;67.89;101492.03;7394589;19;20025;-62
2023/03/27 05:52:41;;;;;;;13.50;3.75;;;;;;;2.13;68.12;101494.56;7390771;19;19998;-61
2023/03/27 05:55:08;;;;;;;18.88;4.00;;;;;;;2.11;67.94;101496.34;7394809;19;20078;-63
2023/03/27 05:57:38;;;;;;;15.55;3.97;;;;;;;2.21;67.31;101501.28;7393162;19;20015;-60
2023/03/27 06:00:12;;;;;;;14.10;3.85;;;;;;;2.22;66.92;101495.13;7394453;19;20021;-63
2023/03/27 06:02:39;;;;;;;12.60;3.42;;;;;;;2.29;66.67;101501.88;7392568;19;20026;-62
2023/03/27 06:05:09;;;;;;;12.23;3.50;;;;;;;2.24;66.26;101507.28;7393153;19;20002;-62
2023/03/27 06:07:37;;;;;;;12.48;3.58;;;;;;;2.30;66.06;101514.06;7392198;19;20002;-62
2023/03/27 06:10:04;;;;;;;10.25;3.47;;;;;;;2.31;66.08;101518.38;7393619;19;20002;-62
2023/03/27 06:12:29;;;;;;;14.82;3.10;;;;;;;2.30;65.86;101520.16;7392793;19;20110;-62
2023/03/27 06:14:55;;;;;;;15.35;2.88;;;;;;;2.36;65.51;101530.44;7391010;19;20440;-63
2023/03/27 06:17:20;;;;;;;11.35;3.13;;;;;;;2.35;65.52;101541.84;7390378;19;19998;-62
2023/03/27 06:19:46;;;;;;;13.98;3.33;;;;;;;2.46;65.54;101546.69;7393968;19;20058;-63
2023/03/27 06:22:11;;;;;;;17.95;3.90;;;;;;;2.58;65.34;101543.66;7391830;19;19998;-63
2023/03/27 06:24:37;;;;;;;14.70;3.00;;;;;;;2.59;65.20;101552.38;7390441;19;20009;-62
2023/03/27 06:27:02;;;;;;;10.88;2.97;;;;;;;2.47;65.58;101540.56;7390587;19;19997;-63
2023/03/27 06:29:28;;;;;;;13.35;3.47;;;;;;;2.40;66.16;101541.69;7392570;19;19995;-62
2023/03/27 06:31:56;;;;;;;12.27;3.28;;;;;;;2.44;66.26;101550.28;7388674;19;20488;-63
2023/03/27 06:34:22;;;;;;;17.75;4.03;;;;;;;2.55;65.96;101549.00;7389499;19;20118;-62
2023/03/27 06:36:48;;;;;;;17.60;3.60;;;;;;;2.74;65.49;101549.19;7390467;19;19994;-62
2023/03/27 06:39:15;;;;;;;12.60;3.35;;;;;;;2.80;65.51;101561.22;7391151;19;20086;-63
2023/03/27 06:41:40;;;;;;;12.65;3.60;;;;;;;2.79;65.96;101564.75;7384333;19;20520;-63
2023/03/27 06:44:06;;;;;;;15.18;3.70;;;;;;;2.76;65.86;101585.84;7391983;19;20014;-64
2023/03/27 06:46:32;;;;;;;11.32;2.67;;;;;;;2.70;65.70;101589.56;7391149;19;19998;-63
2023/03/27 06:48:57;;;;;;;9.88;2.60;;;;;;;2.51;67.03;101612.97;7388259;19;20006;-63
2023/03/27 06:51:25;;;;;;;12.20;2.47;;;;;;;2.37;68.22;101608.19;7389930;19;20013;-62
2023/03/27 06:53:51;;;;;;;10.23;2.08;;;;;;;2.15;70.52;101613.28;7390403;19;19999;-63
2023/03/27 06:56:17;;;;;;;9.18;2.00;;;;;;;2.10;71.87;101609.97;7388705;19;20015;-62
2023/03/27 06:58:42;;;;;;;6.53;1.25;;;;;;;2.05;71.31;101580.44;7391200;19;20025;-62
2023/03/27 07:01:07;;;;;;;5.18;1.30;;;;;;;1.99;71.87;101577.16;7391568;19;20003;-62
2023/03/27 07:03:33;;;;;;;2.90;1.08;;;;;;;1.90;72.43;101573.94;7390774;19;19995;-63
2023/03/27 07:05:59;;;;;;;4.75;1.17;;;;;;;1.86;72.60;101576.72;7389890;19;20391;-63
2023/03/27 07:08:25;;;;;;;4.35;1.13;;;;;;;1.84;72.56;101579.38;7391212;19;20001;-63
2023/03/27 07:10:53;;;;;;;3.25;1.25;;;;;;;1.89;72.36;101577.47;7390945;19;20003;-62
2023/03/27 07:13:18;;;;;;;4.43;0.90;;;;;;;1.95;72.63;101584.28;7394007;19;20003;-62
2023/03/27 07:15:44;;;;;;;7.00;1.38;;;;;;;2.05;72.35;101588.31;7390928;19;20039;-63
2023/03/27 07:18:10;;;;;;;6.57;1.77;;;;;;;2.17;72.29;101592.28;7386804;19;20390;-62
2023/03/27 07:20:35;;;;;;;7.57;2.10;;;;;;;2.23;72.90;101599.06;7389698;19;19998;-63
2023/03/27 07:23:02;;;;;;;8.70;1.85;;;;;;;2.38;72.53;101603.78;7389778;19;20603;-64
2023/03/27 07:25:35;;;;;;;5.88;1.40;;;;;;;2.43;73.03;101615.00;7390113;19;19990;-63
2023/03/27 07:28:04;;;;;;;6.68;1.90;;;;;;;2.34;73.24;101617.91;7389476;19;20085;-63
2023/03/27 07:30:30;;;;;;;7.68;2.17;;;;;;;2.42;73.36;101610.66;7389475;19;19995;-64
2023/03/27 07:32:57;;;;;;;6.47;2.10;;;;;;;2.48;71.99;101610.44;7388792;19;20002;-63
2023/03/27 07:35:24;;;;;;;7.15;2.22;;;;;;;2.56;71.77;101607.56;7390076;19;20070;-64
2023/03/27 07:37:51;;;;;;;8.65;1.98;;;;;;;2.84;71.01;101604.78;7388610;19;20022;-63
2023/03/27 07:40:21;;;;;;;8.13;2.25;;;;;;;3.50;68.71;101615.47;7389915;19;20006;-64
2023/03/27 07:42:48;;;;;;;8.20;2.40;;;;;;;3.53;67.96;101615.34;7393366;19;20385;-63
2023/03/27 07:45:15;;;;;;;11.52;2.80;;;;;;;3.28;69.06;101613.66;7393669;19;20071;-62
2023/03/27 07:47:42;;;;;;;7.28;2.85;;;;;;;3.26;68.66;101612.00;7388286;19;19995;-63
2023/03/27 07:50:10;;;;;;;8.25;2.85;;;;;;;3.14;68.54;101608.91;7389965;19;20002;-63
2023/03/27 07:52:36;;;;;;;14.38;4.43;;;;;;;2.97;68.65;101610.47;7390234;19;20472;-62
2023/03/27 07:55:02;;;;;;;14.13;4.95;;;;;;;2.99;68.52;101608.63;7389712;19;19998;-61
2023/03/27 07:57:28;;;;;;;12.07;4.60;;;;;;;3.08;68.38;101624.06;7388947;19;20026;-62
2023/03/27 07:59:56;;;;;;;11.27;3.42;;;;;;;3.12;67.64;101620.41;7389500;19;19995;-62
2023/03/27 08:02:23;;;;;;;8.23;2.88;;;;;;;3.13;67.91;101614.25;7387555;19;19999;-61
2023/03/27 08:04:50;;;;;;;5.75;2.13;;;;;;;3.22;68.20;101611.25;7388286;19;19998;-62
2023/03/27 08:07:17;;;;;;;7.60;1.90;;;;;;;3.29;67.75;101619.78;7387766;19;20075;-61
2023/03/27 08:09:42;;;;;;;11.90;2.22;;;;;;;3.58;67.11;101618.66;7388853;19;20363;-62
2023/03/27 08:12:08;;;;;;;9.73;2.10;;;;;;;3.82;65.90;101612.44;7387901;19;20007;-62
2023/03/27 08:14:33;;;;;;;11.55;2.40;;;;;;;3.67;66.73;101606.94;7391569;19;20039;-62
2023/03/27 08:16:59;;;;;;;6.78;1.63;;;;;;;3.63;66.13;101621.97;7394000;19;20026;-62
2023/03/27 08:19:25;;;;;;;7.68;1.90;;;;;;;3.61;66.61;101622.03;7397162;19;20009;-62
2023/03/27 08:21:50;;;;;;;9.95;1.85;;;;;;;3.66;65.81;101619.22;7394996;19;20013;-63
2023/03/27 08:24:16;;;;;;;5.50;1.83;;;;;;;3.69;65.41;101624.34;7394844;19;20015;-63
2023/03/27 08:26:41;;;;;;;9.20;1.98;;;;;;;3.84;64.35;101633.41;7394771;19;19998;-61
2023/03/27 08:29:07;;;;;;;12.25;2.72;;;;;;;4.08;63.53;101629.81;7396526;19;20030;-63
2023/03/27 08:31:33;;;;;;;8.13;1.48;;;;;;;4.40;61.97;101632.88;7394983;19;19998;-63
2023/03/27 08:34:00;;;;;;;7.35;1.88;;;;;;;4.44;61.28;101637.09;7393318;19;19999;-63
2023/03/27 08:36:26;;;;;;;7.50;1.45;;;;;;;4.32;61.52;101630.56;7394852;19;20009;-63
2023/03/27 08:38:53;;;;;;;6.75;1.63;;;;;;;4.46;61.24;101656.31;7396326;19;19999;-63
2023/03/27 08:41:51;;;;;;;7.25;1.15;;;;;;;4.12;60.20;101650.72;7397501;19;19994;-63
2023/03/27 08:44:20;;;;;;;7.72;1.63;;;;;;;3.90;61.39;101656.81;7395459;19;20320;-63
2023/03/27 08:46:54;;;;;;;6.50;1.33;;;;;;;3.91;61.81;101662.91;7394918;19;20010;-65
2023/03/27 08:49:25;;;;;;;6.60;1.30;;;;;;;3.90;62.36;101672.56;7392251;19;20054;-63
2023/03/27 08:51:57;;;;;;;8.07;1.30;;;;;;;3.86;63.53;101698.13;7392970;19;20002;-63
2023/03/27 08:54:26;;;;;;;5.68;1.27;;;;;;;3.60;67.76;101701.75;7394724;19;20002;-62
2023/03/27 08:56:52;;;;;;;3.30;1.10;;;;;;;3.21;69.28;101713.72;7395103;19;20015;-63
2023/03/27 08:59:20;;;;;;;5.18;1.00;;;;;;;3.05;70.25;101706.41;7394602;19;20438;-63
2023/03/27 09:02:19;;;;;;;4.65;1.15;;;;;;;3.06;71.03;101713.34;7394833;19;20353;-62
2023/03/27 09:04:59;;;;;;;3.30;1.05;;;;;;;2.93;71.22;101716.47;7394094;19;20773;-62
2023/03/27 09:07:36;;;;;;;5.43;1.30;;;;;;;2.80;70.23;101695.88;7390885;19;20005;-63
2023/03/27 09:10:26;;;;;;;5.57;0.85;;;;;;;2.93;69.38;101693.72;7391456;19;20062;-62
2023/03/27 09:13:17;;;;;;;5.32;1.33;;;;;;;3.24;68.33;101697.88;7390773;19;20007;-62
2023/03/27 09:15:49;;;;;;;7.10;1.70;;;;;;;3.33;67.47;101697.53;7396121;19;20030;-63
2023/03/27 09:18:20;;;;;;;4.65;1.50;;;;;;;3.48;66.94;101691.69;7391927;19;20007;-62
2023/03/27 09:20:50;;;;;;;4.00;1.40;;;;;;;3.45;67.07;101702.31;7393711;19;20035;-63
2023/03/27 09:23:40;;;;;;;7.05;1.73;;;;;;;3.20;68.48;101702.38;7394523;19;20088;-62
2023/03/27 09:26:13;;;;;;;5.57;1.25;;;;;;;3.07;68.96;101696.69;7392618;19;20026;-62
2023/03/27 09:28:50;;;;;;;8.30;1.58;;;;;;;2.96;69.59;101697.97;7391601;19;20006;-63
2023/03/27 09:31:45;;;;;;;8.23;1.45;;;;;;;3.10;69.06;101712.34;7393150;19;20045;-63
2023/03/27 09:34:13;;;;;;;13.45;2.42;;;;;;;3.23;68.61;101706.66;7395358;19;20055;-62
2023/03/27 09:36:41;;;;;;;9.23;2.00;;;;;;;3.40;67.89;101708.66;7392411;19;20066;-63
2023/03/27 09:39:11;;;;;;;11.60;1.75;;;;;;;3.57;67.50;101706.25;7393961;19;19995;-63
2023/03/27 09:41:42;;;;;;;9.75;1.88;;;;;;;3.70;67.10;101704.03;7394494;19;20003;-63
2023/03/27 09:44:27;;;;;;;8.30;2.00;;;;;;;3.85;66.98;101712.19;7397783;19;20163;-63
2023/03/27 09:47:03;;;;;;;9.10;1.88;;;;;;;3.87;67.92;101707.72;7393411;19;20123;-65
2023/03/27 09:49:28;;;;;;;12.10;2.35;;;;;;;3.86;68.37;101706.00;7391874;19;20018;-65
2023/03/27 09:51:59;;;;;;;10.82;2.75;;;;;;;3.96;68.22;101717.06;7390946;19;20110;-65
2023/03/27 09:54:30;;;;;;;9.85;2.35;;;;;;;4.04;67.27;101714.16;7391853;19;20479;-65
2023/03/27 09:57:03;;;;;;;9.02;2.00;;;;;;;4.15;65.87;101706.69;7392334;19;19998;-64
2023/03/27 09:59:36;;;;;;;6.80;1.95;;;;;;;4.20;64.03;101707.34;7389583;19;20030;-64
2023/03/27 10:02:15;;;;;;;10.25;1.88;;;;;;;4.22;63.94;101713.41;7392600;19;20007;-64
2023/03/27 10:04:57;;;;;;;6.45;1.55;;;;;;;4.15;62.44;101705.84;7390267;19;20007;-64
2023/03/27 10:07:24;;;;;;;6.05;1.20;;;;;;;4.21;63.13;101711.69;7389376;19;20775;-65
2023/03/27 10:10:10;;;;;;;8.00;1.40;;;;;;;4.27;62.72;101707.97;7394082;19;20029;-64
2023/03/27 10:12:38;;;;;;;8.73;1.73;;;;;;;4.46;63.04;101708.06;7393088;19;20003;-65
2023/03/27 10:15:37;;;;;;;7.43;1.30;;;;;;;4.54;61.67;101703.34;7392754;19;19999;-64
2023/03/27 10:18:18;;;;;;;5.47;0.93;;;;;;;4.76;61.06;101709.44;7390368;19;20003;-65
2023/03/27 10:20:55;;;;;;;7.05;1.30;;;;;;;5.28;59.53;101699.22;7391729;19;20074;-65
2023/03/27 10:23:25;;;;;;;7.53;1.67;;;;;;;5.43;59.79;101708.22;7391048;19;20002;-64
2023/03/27 10:25:56;;;;;;;7.97;1.30;;;;;;;5.38;59.18;101696.22;7392188;19;20006;-65
2023/03/27 10:28:26;;;;;;;4.13;1.10;;;;;;;5.40;59.72;101702.25;7393436;19;20030;-64
2023/03/27 10:31:00;;;;;;;5.68;1.30;;;;;;;5.36;58.08;101698.88;7395708;19;20077;-64
2023/03/27 10:33:35;;;;;;;6.00;1.45;;;;;;;5.43;56.58;101696.84;7392256;19;20002;-65
2023/03/27 10:36:03;;;;;;;6.25;0.90;;;;;;;5.31;54.15;101704.38;7388932;19;20374;-64
2023/03/27 10:38:32;;;;;;;5.15;1.17;;;;;;;5.29;52.79;101702.75;7394580;19;19999;-64
2023/03/27 10:40:59;;;;;;;7.03;1.13;;;;;;;5.38;54.08;101706.75;7396145;19;20006;-63
2023/03/27 10:43:36;;;;;;;7.18;1.10;;;;;;;5.78;53.05;101706.63;7391898;19;20020;-63
2023/03/27 10:46:11;;;;;;;7.68;1.48;;;;;;;6.03;53.69;101719.50;7391665;19;20006;-63
2023/03/27 10:48:55;;;;;;;9.60;1.90;;;;;;;5.85;54.34;101720.38;7391470;19;19998;-63
2023/03/27 10:51:31;;;;;;;9.05;1.40;;;;;;;5.74;55.28;101722.66;7390787;19;20045;-64
2023/03/27 10:54:19;;;;;;;6.82;1.27;;;;;;;5.42;55.59;101729.41;7391465;19;20005;-63
2023/03/27 10:57:17;;;;;;;6.13;1.10;;;;;;;5.01;57.87;101759.25;7387807;19;20012;-64
2023/03/27 11:00:17;;;;;;;7.55;1.23;;;;;;;4.67;58.18;101756.31;7392524;19;20033;-64
2023/03/27 11:03:24;;;;;;;4.13;0.75;;;;;;;4.47;57.97;101759.78;7390942;19;20334;-65
2023/03/27 11:05:53;;;;;;;3.38;0.70;;;;;;;4.48;57.60;101762.31;7387570;19;20356;-64
2023/03/27 11:09:04;;;;;;;3.25;0.60;;;;;;;4.69;55.99;101762.38;7389888;19;19995;-64
2023/03/27 11:11:44;;;;;;;4.90;0.70;;;;;;;4.66;56.37;101766.00;7387796;19;20423;-64
2023/03/27 11:14:21;;;;;;;1.88;0.50;;;;;;;4.78;57.37;101780.41;7390638;19;20006;-64
2023/03/27 11:16:54;;;;;;;4.72;0.75;;;;;;;4.74;58.23;101786.72;7391482;19;20419;-63
2023/03/27 11:19:41;;;;;;;5.82;0.90;;;;;;;4.58;59.64;101776.84;7389501;19;20471;-63
2023/03/27 11:22:14;;;;;;;3.17;0.73;;;;;;;4.61;59.29;101785.53;7390521;19;20006;-65
2023/03/27 11:25:15;;;;;;;6.18;1.05;;;;;;;4.84;59.52;101791.56;7389781;19;20034;-66
2023/03/27 11:27:57;;;;;;;8.73;0.90;;;;;;;5.49;57.78;101783.53;7389554;19;20079;-65
2023/03/27 11:30:43;;;;;;;5.78;1.00;;;;;;;5.84;55.67;101789.88;7391748;19;20609;-66
2023/03/27 11:33:53;;;;;;;7.82;1.38;;;;;;;5.27;56.75;101781.84;7389847;19;20003;-66
2023/03/27 11:36:39;;;;;;;7.15;1.20;;;;;;;5.05;59.08;101787.16;7385967;19;20003;-65
2023/03/27 11:39:18;;;;;;;6.38;0.82;;;;;;;4.81;60.50;101786.41;7395143;19;19998;-66
2023/03/27 11:41:56;;;;;;;9.73;0.98;;;;;;;4.62;59.69;101784.59;7388718;19;20031;-64
2023/03/27 11:44:23;;;;;;;2.90;0.60;;;;;;;4.58;59.79;101786.50;7390656;19;19999;-65
2023/03/27 11:47:27;;;;;;;2.75;0.90;;;;;;;4.98;58.77;101787.47;7389186;19;20024;-66
2023/03/27 11:50:04;;;;;;;5.00;0.88;;;;;;;5.22;58.64;101799.63;7384826;19;20019;-64
2023/03/27 11:52:33;;;;;;;4.85;0.90;;;;;;;5.03;59.47;101812.72;7386307;19;20014;-65